Time;durP1;ratioP1;P1;durP2;ratioP2;P2;SDS_P1;SDS_P2;PMS_P1;PMS_P2;Temp;Humidity;BMP_temperature;BMP_pressure;BME280_temperature;BME280_humidity;BME280_pressure;Samples;Min_cycle;Max_cycle;Signal;HPM_P1;HPM_P2
2022/07/15 00:06:40;;;;;;;2.00;1.30;;;;;;;16.80;47.55;99191.71;433698;1267;60742;-56
2022/07/15 00:16:46;;;;;;;1.30;1.00;;;;;;;16.62;48.03;99187.86;434007;1266;72767;-55
2022/07/15 00:26:51;;;;;;;4.20;1.20;;;;;;;16.28;48.60;99190.02;434249;1267;68308;-54
2022/07/15 00:36:57;;;;;;;1.80;1.20;;;;;;;15.92;49.30;99200.13;434183;1268;72032;-55
2022/07/15 00:47:03;;;;;;;7.30;1.70;;;;;;;15.54;50.00;99190.74;434424;1267;60522;-58
2022/07/15 00:57:09;;;;;;;2.90;0.90;;;;;;;15.22;50.79;99184.53;435262;1267;60598;-55
2022/07/15 01:07:16;;;;;;;2.10;1.00;;;;;;;14.94;51.36;99189.42;434623;1267;73852;-53
2022/07/15 01:17:21;;;;;;;3.60;1.60;;;;;;;14.74;51.91;99192.60;434313;1266;68604;-52
2022/07/15 01:27:28;;;;;;;6.10;1.50;;;;;;;14.51;52.94;99191.40;433889;1267;71559;-55
2022/07/15 01:37:33;;;;;;;11.60;2.60;;;;;;;14.30;53.80;99199.66;433961;1267;60910;-56
2022/07/15 01:47:45;;;;;;;4.20;1.80;;;;;;;13.98;54.84;99203.77;433885;1268;60678;-54
2022/07/15 01:57:51;;;;;;;5.60;1.80;;;;;;;13.59;56.15;99203.49;437612;1267;74843;-56
2022/07/15 02:07:56;;;;;;;4.50;2.10;;;;;;;13.25;57.32;99213.41;433858;1266;68400;-55
2022/07/15 02:18:03;;;;;;;6.10;1.80;;;;;;;12.98;58.30;99212.56;433753;1267;72620;-55
2022/07/15 02:28:09;;;;;;;5.00;2.00;;;;;;;12.79;59.02;99225.86;433852;1267;61314;-57
2022/07/15 02:38:15;;;;;;;5.80;2.60;;;;;;;12.65;59.91;99229.61;441984;1266;61546;-57
2022/07/15 02:48:21;;;;;;;3.80;1.70;;;;;;;12.53;60.36;99234.35;435127;1267;73958;-54
2022/07/15 02:58:28;;;;;;;4.60;2.00;;;;;;;12.48;60.84;99233.52;434279;1268;69960;-57
2022/07/15 03:08:34;;;;;;;4.70;1.70;;;;;;;12.57;61.35;99241.44;434213;1268;71581;-54
2022/07/15 03:18:39;;;;;;;5.50;1.30;;;;;;;13.50;61.50;99249.14;433862;1267;60742;-54
2022/07/15 03:28:45;;;;;;;6.80;1.70;;;;;;;15.24;59.28;99253.02;434061;1268;60585;-52
2022/07/15 03:38:52;;;;;;;9.80;1.90;;;;;;;16.35;56.07;99256.80;434046;1268;72761;-57
2022/07/15 03:48:58;;;;;;;10.30;3.20;;;;;;;15.41;56.62;99267.98;436934;1267;69494;-54
2022/07/15 03:59:04;;;;;;;6.40;1.70;;;;;;;14.95;57.46;99283.27;433874;1267;72916;-55
2022/07/15 04:09:10;;;;;;;7.70;3.00;;;;;;;15.24;57.74;99293.79;433769;1268;61174;-53
2022/07/15 04:19:16;;;;;;;4.90;2.00;;;;;;;21.24;53.72;99291.25;434128;1267;60606;-55
2022/07/15 04:29:22;;;;;;;4.10;1.60;;;;;;;28.51;42.84;99294.09;434648;1268;73989;-53
2022/07/15 04:39:28;;;;;;;2.50;1.60;;;;;;;26.80;38.91;99308.96;435439;1268;68587;-55
2022/07/15 04:59:57;;;;;;;3.40;1.20;;;;;;;34.40;30.40;99306.42;435837;1268;60977;-60
2022/07/15 05:10:04;;;;;;;2.70;1.20;;;;;;;33.93;27.83;99309.79;435874;1268;60567;-58
2022/07/15 05:20:09;;;;;;;;;;;;;;;29.90;29.72;99323.94;435966;1268;73958;-55
2022/07/15 05:30:16;;;;;;;4.60;0.90;;;;;;;28.39;29.29;99342.71;449570;1266;68881;-63
2022/07/15 05:40:20;;;;;;;;;;;;;;;25.84;33.48;99347.56;434660;1266;72850;-55
2022/07/15 05:50:27;;;;;;;1.70;1.20;;;;;;;30.39;29.07;99357.40;435020;1268;60854;-57
2022/07/15 06:00:32;;;;;;;2.20;0.70;;;;;;;32.08;27.11;99368.82;435890;1268;60554;-58
2022/07/15 06:10:39;;;;;;;2.00;1.10;;;;;;;34.35;25.50;99380.02;435753;1268;72063;-59
2022/07/15 06:20:45;;;;;;;2.60;0.80;;;;;;;35.40;23.88;99387.59;435158;1266;69535;-58
2022/07/15 06:30:51;;;;;;;4.20;1.90;;;;;;;35.83;23.15;99393.27;434831;1267;73328;-58
2022/07/15 06:40:57;;;;;;;2.40;1.10;;;;;;;38.54;21.38;99396.39;435319;1267;60912;-58
2022/07/15 06:51:02;;;;;;;2.80;1.00;;;;;;;37.00;21.01;99411.39;434855;1268;60902;-58
2022/07/15 07:01:09;;;;;;;3.80;0.90;;;;;;;38.30;20.13;99413.09;435338;1268;72990;-58
2022/07/15 07:11:15;;;;;;;6.20;1.00;;;;;;;39.85;18.63;99421.38;435512;1267;60571;-57
2022/07/15 07:21:21;;;;;;;2.20;1.40;;;;;;;42.15;16.56;99427.34;435430;1266;71676;-59
2022/07/15 07:31:36;;;;;;;2.70;1.60;;;;;;;41.31;16.19;99436.06;435597;1266;60579;-57
2022/07/15 07:41:42;;;;;;;6.40;1.50;;;;;;;42.60;15.99;99442.24;435254;1266;60585;-57
2022/07/15 07:51:48;;;;;;;6.60;1.30;;;;;;;43.84;15.54;99449.73;435298;1267;63962;-57
2022/07/15 08:01:54;;;;;;;3.50;0.70;;;;;;;42.83;15.02;99459.69;435149;1267;60882;-58
2022/07/15 08:12:01;;;;;;;2.50;0.70;;;;;;;33.64;18.34;99464.34;435326;1268;71933;-58
2022/07/15 08:22:07;;;;;;;3.90;0.60;;;;;;;29.13;22.36;99479.71;435702;1266;60494;-58
2022/07/15 08:32:19;;;;;;;2.80;0.50;;;;;;;26.68;24.97;99493.48;435215;1267;60911;-58
2022/07/15 08:42:25;;;;;;;2.00;0.70;;;;;;;25.12;26.93;99500.98;435019;1267;72257;-56
2022/07/15 08:52:34;;;;;;;0.70;0.30;;;;;;;24.32;28.10;99503.11;435220;1268;68395;-58
2022/07/15 09:02:40;;;;;;;2.10;1.00;;;;;;;24.21;28.86;99506.63;435450;1267;70268;-57
2022/07/15 09:12:51;;;;;;;4.70;0.50;;;;;;;23.37;29.64;99508.50;435369;1266;61192;-57
2022/07/15 09:22:57;;;;;;;3.20;0.40;;;;;;;22.30;30.94;99516.95;435442;1266;60555;-56
2022/07/15 09:43:30;;;;;;;10.80;1.40;;;;;;;22.34;31.10;99524.83;434789;1267;68498;-56
2022/07/15 09:53:36;;;;;;;3.80;0.60;;;;;;;23.27;30.25;99537.19;435133;1266;71381;-56
2022/07/15 10:03:42;;;;;;;5.40;0.80;;;;;;;23.06;29.88;99538.03;435266;1266;60558;-55
2022/07/15 10:14:17;;;;;;;5.40;0.70;;;;;;;22.84;29.87;99554.83;435401;1268;60580;-56
2022/07/15 10:24:43;;;;;;;5.20;1.50;;;;;;;22.75;29.49;99552.30;435757;1266;72870;-57
2022/07/15 10:34:49;;;;;;;0.40;0.40;;;;;;;21.61;30.88;99562.73;435278;1267;68490;-54
2022/07/15 10:45:09;;;;;;;3.70;0.50;;;;;;;21.48;31.60;99566.97;435159;1267;71435;-58
2022/07/15 10:55:21;;;;;;;2.50;0.40;;;;;;;21.41;31.86;99573.16;435101;1267;60761;-57
2022/07/15 11:05:27;;;;;;;2.40;0.50;;;;;;;21.90;31.35;99563.48;434929;1267;61171;-57
2022/07/15 11:15:34;;;;;;;2.10;0.60;;;;;;;21.22;31.70;99575.11;435221;1267;72572;-57
2022/07/15 11:25:41;;;;;;;1.40;0.50;;;;;;;20.90;32.44;99580.59;435000;1268;463593;-58
2022/07/15 11:35:50;;;;;;;3.50;0.50;;;;;;;21.34;32.26;99572.83;435444;1267;72526;-58
2022/07/15 11:45:57;;;;;;;1.60;0.90;;;;;;;21.61;31.83;99575.20;435287;1266;60550;-57
2022/07/15 11:56:03;;;;;;;3.60;0.50;;;;;;;21.72;31.30;99571.73;435265;1268;60546;-54
2022/07/15 12:06:15;;;;;;;0.70;0.40;;;;;;;21.15;31.62;99580.93;435268;1265;74326;-57
2022/07/15 12:16:28;;;;;;;2.50;0.70;;;;;;;21.17;31.69;99589.44;435247;1268;68645;-57
2022/07/15 12:26:38;;;;;;;4.10;0.60;;;;;;;21.51;31.57;99585.42;435217;1267;72736;-53
2022/07/15 12:36:44;;;;;;;4.50;0.80;;;;;;;21.25;31.87;99593.94;435745;1267;60571;-57
2022/07/15 12:46:56;;;;;;;2.20;0.60;;;;;;;21.35;32.17;99594.40;435212;1267;60575;-55
2022/07/15 12:57:02;;;;;;;4.70;1.40;;;;;;;20.93;32.05;99593.40;435619;1265;72703;-55
2022/07/15 13:07:08;;;;;;;4.10;0.30;;;;;;;20.96;32.54;99598.42;435245;1266;68919;-55
2022/07/15 13:17:14;;;;;;;3.20;0.40;;;;;;;20.98;32.07;99597.52;435056;1267;70602;-56
2022/07/15 13:27:20;;;;;;;3.40;0.50;;;;;;;20.54;32.39;99604.16;434709;1267;60621;-57
2022/07/15 13:37:34;;;;;;;3.40;0.50;;;;;;;20.81;32.54;99599.56;434807;1266;60579;-56
2022/07/15 13:47:40;;;;;;;4.40;1.00;;;;;;;20.85;31.81;99598.40;434522;1267;72871;-54
2022/07/15 13:57:46;;;;;;;3.10;0.80;;;;;;;20.64;32.21;99604.48;434657;1267;68940;-57
2022/07/15 14:07:54;;;;;;;1.40;0.50;;;;;;;20.87;32.08;99606.11;434547;1267;71686;-58
2022/07/15 14:18:00;;;;;;;1.30;0.50;;;;;;;20.81;32.28;99611.10;434375;1265;61037;-58
2022/07/15 14:28:06;;;;;;;1.90;0.50;;;;;;;20.53;32.49;99610.30;434222;1267;60608;-55
2022/07/15 14:38:11;;;;;;;12.40;1.10;;;;;;;20.15;32.36;99609.77;434489;1267;74094;-56
2022/07/15 14:48:26;;;;;;;4.80;0.70;;;;;;;20.34;32.68;99608.05;435551;1268;68453;-57
2022/07/15 14:58:32;;;;;;;2.10;0.50;;;;;;;20.07;32.95;99607.79;435520;1266;72562;-55
2022/07/15 15:08:38;;;;;;;1.70;0.40;;;;;;;19.99;33.21;99606.99;435277;1268;60595;-58
2022/07/15 15:18:44;;;;;;;1.30;0.70;;;;;;;19.77;33.40;99605.30;435427;1268;60574;-60
2022/07/15 15:28:50;;;;;;;1.60;0.60;;;;;;;19.54;33.42;99609.20;435815;1268;73948;-59
2022/07/15 15:38:56;;;;;;;3.10;0.50;;;;;;;19.45;33.65;99614.21;434983;1267;68506;-56
2022/07/15 15:49:02;;;;;;;1.00;0.40;;;;;;;19.29;33.83;99613.81;434236;1267;71616;-59
2022/07/15 15:59:08;;;;;;;2.70;0.50;;;;;;;19.59;34.10;99613.61;433025;1267;61006;-55
2022/07/15 16:09:14;;;;;;;0.80;0.40;;;;;;;19.71;33.87;99621.50;433933;1267;60819;-57
2022/07/15 16:19:20;;;;;;;3.00;0.90;;;;;;;19.80;33.78;99621.66;434371;1265;73824;-56
2022/07/15 16:29:26;;;;;;;1.20;0.50;;;;;;;19.85;33.93;99625.63;434856;1265;68210;-55
2022/07/15 16:39:32;;;;;;;1.20;0.60;;;;;;;19.73;33.92;99621.16;435095;1266;71936;-54
2022/07/15 16:49:38;;;;;;;1.50;0.50;;;;;;;19.61;34.59;99631.34;435185;1268;60579;-57
2022/07/15 16:59:44;;;;;;;1.20;0.70;;;;;;;19.48;34.45;99632.88;434698;1267;60886;-57
2022/07/15 17:09:50;;;;;;;3.90;1.90;;;;;;;19.28;34.40;99629.53;434602;1267;72861;-57
2022/07/15 17:19:56;;;;;;;0.80;0.50;;;;;;;18.93;34.91;99631.74;434793;1266;67402;-55
2022/07/15 17:30:02;;;;;;;2.60;0.80;;;;;;;18.57;35.21;99625.93;434461;1268;71672;-55
2022/07/15 17:40:09;;;;;;;3.40;0.40;;;;;;;18.40;35.85;99622.08;434182;1267;61241;-60
2022/07/15 17:50:15;;;;;;;2.90;0.40;;;;;;;18.29;36.12;99622.63;434781;1267;61001;-59
2022/07/15 18:00:21;;;;;;;3.30;0.60;;;;;;;18.01;36.40;99618.35;434736;1267;72828;-54
2022/07/15 18:10:27;;;;;;;2.90;0.70;;;;;;;17.73;36.97;99625.70;434586;1267;68807;-58
2022/07/15 18:20:33;;;;;;;2.80;0.60;;;;;;;17.54;37.44;99631.56;435155;1267;71669;-55
2022/07/15 18:30:39;;;;;;;4.70;1.30;;;;;;;17.57;37.80;99638.51;435741;1266;60700;-55
2022/07/15 18:40:45;;;;;;;4.00;1.20;;;;;;;16.88;38.73;99643.09;434248;1267;61180;-56
2022/07/15 18:50:51;;;;;;;3.00;0.90;;;;;;;16.35;39.85;99651.27;434212;1267;73791;-56
2022/07/15 19:00:57;;;;;;;8.80;1.20;;;;;;;15.84;41.53;99653.33;434539;1265;68366;-54
2022/07/15 19:11:03;;;;;;;4.80;1.20;;;;;;;15.30;43.25;99662.73;434967;1265;71317;-56
2022/07/15 19:21:09;;;;;;;7.10;1.80;;;;;;;14.81;44.76;99673.70;434676;1267;60730;-52
2022/07/15 19:31:15;;;;;;;6.20;1.60;;;;;;;14.33;46.17;99681.13;434273;1267;60539;-57
2022/07/15 19:41:21;;;;;;;10.60;1.90;;;;;;;13.88;47.48;99683.73;434281;1267;72662;-59
2022/07/15 19:51:28;;;;;;;12.10;2.20;;;;;;;13.54;48.64;99693.13;436140;1267;68433;-55
2022/07/15 20:01:34;;;;;;;10.90;2.50;;;;;;;13.24;49.78;99697.91;433610;1268;71571;-57
2022/07/15 20:11:40;;;;;;;8.60;2.70;;;;;;;12.97;50.74;99698.80;434794;1268;60506;-55
2022/07/15 20:21:46;;;;;;;8.60;2.70;;;;;;;12.65;51.88;99702.48;435111;1267;61280;-58
2022/07/15 20:31:52;;;;;;;11.40;2.60;;;;;;;12.33;52.82;99710.29;435055;1267;71797;-55
2022/07/15 20:41:57;;;;;;;10.50;3.50;;;;;;;12.06;53.63;99705.86;435975;1268;68668;-60
2022/07/15 20:52:04;;;;;;;6.20;2.90;;;;;;;11.81;54.54;99705.54;435512;1268;70451;-53
2022/07/15 21:02:10;;;;;;;5.90;3.30;;;;;;;11.58;55.11;99707.61;435714;1267;60593;-54
2022/07/15 21:12:15;;;;;;;4.20;3.70;;;;;;;11.36;55.51;99707.99;435119;1269;61027;-57
2022/07/15 21:22:21;;;;;;;8.70;4.10;;;;;;;11.15;56.34;99712.52;435212;1265;72996;-58
2022/07/15 21:32:27;;;;;;;7.40;4.40;;;;;;;10.93;57.19;99713.50;435847;1268;68626;-59
2022/07/15 21:42:34;;;;;;;9.40;4.70;;;;;;;10.74;57.75;99712.61;434742;1267;71426;-56
2022/07/15 21:52:40;;;;;;;7.80;4.80;;;;;;;10.57;58.01;99715.42;434634;1268;60586;-60
2022/07/15 22:02:47;;;;;;;13.90;5.30;;;;;;;10.38;58.78;99720.37;434957;1267;61011;-55
2022/07/15 22:12:53;;;;;;;6.20;4.50;;;;;;;10.23;59.26;99717.11;435546;1267;72804;-62
2022/07/15 22:22:58;;;;;;;12.90;5.10;;;;;;;10.07;59.71;99719.45;435421;1266;70472;-57
2022/07/15 22:33:04;;;;;;;10.00;4.70;;;;;;;9.95;60.18;99719.81;435468;1268;71832;-58
2022/07/15 22:43:11;;;;;;;8.10;5.50;;;;;;;9.81;60.68;99720.43;435547;1268;60644;-64
2022/07/15 22:53:17;;;;;;;9.10;6.10;;;;;;;9.63;61.24;99720.95;435493;1268;60571;-56
2022/07/15 23:03:23;;;;;;;11.00;7.50;;;;;;;9.52;61.27;99718.98;435497;1268;72571;-58
2022/07/15 23:13:29;;;;;;;8.20;5.10;;;;;;;9.37;61.65;99719.62;435359;1268;68401;-61
2022/07/15 23:23:36;;;;;;;6.80;4.80;;;;;;;9.24;62.15;99718.27;434863;1268;289353;-56
2022/07/15 23:33:42;;;;;;;7.10;4.20;;;;;;;9.20;62.47;99719.19;435377;1266;60584;-56
2022/07/15 23:43:49;;;;;;;7.80;3.20;;;;;;;9.16;62.89;99722.20;435369;1268;61124;-54
2022/07/15 23:53:55;;;;;;;9.30;4.50;;;;;;;9.21;62.90;99726.11;435318;1268;74107;-57
